Time;durP1;ratioP1;P1;durP2;ratioP2;P2;SDS_P1;SDS_P2;PMS_P1;PMS_P2;Temp;Humidity;BMP_temperature;BMP_pressure;BME280_temperature;BME280_humidity;BME280_pressure;Samples;Min_cycle;Max_cycle;Signal;HPM_P1;HPM_P2
2021/05/10 00:02:24;;;;;;;6.43;3.63;;;20.60;46.20;;;;;;5037582;28;20468;-58
2021/05/10 00:04:49;;;;;;;9.25;4.35;;;20.50;45.90;;;;;;5035071;28;20045;-58
2021/05/10 00:07:15;;;;;;;6.93;3.55;;;20.50;46.30;;;;;;5038530;28;20087;-58
2021/05/10 00:09:41;;;;;;;3.55;3.17;;;20.50;45.60;;;;;;5034927;28;20041;-59
2021/05/10 00:12:07;;;;;;;4.05;3.25;;;20.50;45.60;;;;;;5034407;28;20033;-59
2021/05/10 00:14:44;;;;;;;5.90;3.65;;;20.50;45.50;;;;;;5036805;28;20053;-59
2021/05/10 00:17:10;;;;;;;7.15;3.70;;;20.40;45.10;;;;;;5035624;28;20087;-58
2021/05/10 00:19:36;;;;;;;5.63;3.90;;;20.40;45.50;;;;;;5041591;28;20033;-58
2021/05/10 00:22:03;;;;;;;8.38;4.25;;;20.30;45.60;;;;;;5049454;28;20050;-58
2021/05/10 00:24:29;;;;;;;5.97;3.80;;;20.20;45.90;;;;;;5030763;28;20408;-58
2021/05/10 00:26:55;;;;;;;4.95;3.80;;;20.20;46.00;;;;;;5036878;28;20080;-60
2021/05/10 00:29:21;;;;;;;4.82;4.32;;;20.10;46.00;;;;;;5047770;28;20432;-59
2021/05/10 00:31:47;;;;;;;6.53;4.35;;;20.20;46.10;;;;;;5042658;28;20051;-58
2021/05/10 00:34:13;;;;;;;6.85;4.70;;;20.20;46.20;;;;;;5033466;28;20053;-58
2021/05/10 00:36:39;;;;;;;5.47;4.32;;;20.10;46.30;;;;;;5042124;28;20486;-58
2021/05/10 00:39:06;;;;;;;5.65;4.25;;;20.20;46.20;;;;;;5033848;28;20469;-58
2021/05/10 00:41:33;;;;;;;5.13;3.92;;;20.20;45.90;;;;;;5045537;28;20033;-59
2021/05/10 00:43:59;;;;;;;6.07;4.65;;;20.10;45.90;;;;;;5040467;28;20040;-59
2021/05/10 00:46:25;;;;;;;6.35;3.50;;;20.10;46.10;;;;;;5039040;28;20041;-59
2021/05/10 00:48:51;;;;;;;4.78;3.67;;;20.00;46.20;;;;;;5037448;28;20127;-59
2021/05/10 00:51:17;;;;;;;4.00;3.58;;;20.00;46.20;;;;;;5034688;28;20068;-59
2021/05/10 00:53:42;;;;;;;5.40;4.25;;;19.90;46.10;;;;;;5036892;28;20044;-59
2021/05/10 00:56:08;;;;;;;7.78;4.05;;;19.90;46.00;;;;;;5039299;28;20071;-59
2021/05/10 00:58:34;;;;;;;5.93;3.65;;;19.80;45.90;;;;;;5044302;28;20110;-59
2021/05/10 01:01:00;;;;;;;8.50;3.80;;;19.80;45.60;;;;;;5040286;28;20051;-59
2021/05/10 01:03:26;;;;;;;5.93;3.75;;;19.80;45.60;;;;;;5043270;28;20036;-59
2021/05/10 01:05:52;;;;;;;7.90;4.00;;;19.90;45.70;;;;;;5032953;28;20512;-60
2021/05/10 01:08:18;;;;;;;5.15;3.60;;;19.90;45.20;;;;;;5040400;28;20110;-60
2021/05/10 01:10:45;;;;;;;6.72;4.07;;;19.90;45.20;;;;;;5029795;28;20407;-60
2021/05/10 01:13:11;;;;;;;6.13;3.50;;;19.80;45.20;;;;;;5038263;28;20029;-61
2021/05/10 01:15:37;;;;;;;4.07;3.22;;;19.80;44.90;;;;;;5034912;28;20049;-60
2021/05/10 01:18:03;;;;;;;7.88;3.85;;;19.70;44.60;;;;;;5040514;28;20041;-60
2021/05/10 01:20:29;;;;;;;5.63;3.38;;;19.80;44.90;;;;;;5042349;28;20048;-61
2021/05/10 01:22:56;;;;;;;6.13;3.63;;;19.70;44.70;;;;;;5037947;28;20041;-59
2021/05/10 01:25:30;;;;;;;6.32;3.58;;;19.60;44.80;;;;;;5038959;28;20488;-60
2021/05/10 01:27:57;;;;;;;9.05;3.83;;;19.60;45.20;;;;;;5037937;28;20368;-60
2021/05/10 01:30:26;;;;;;;6.07;3.88;;;19.50;45.20;;;;;;5044450;28;20045;-61
2021/05/10 01:32:54;;;;;;;4.93;4.32;;;19.50;45.30;;;;;;5036363;28;20133;-60
2021/05/10 01:35:22;;;;;;;5.95;3.63;;;19.60;45.10;;;;;;5041233;28;20054;-60
2021/05/10 01:37:48;;;;;;;4.95;3.60;;;19.50;45.10;;;;;;5030288;28;20486;-59
2021/05/10 01:40:15;;;;;;;7.00;4.03;;;19.50;45.00;;;;;;5039695;28;20037;-60
2021/05/10 01:42:41;;;;;;;5.60;3.78;;;19.40;45.00;;;;;;5031878;28;20034;-60
2021/05/10 01:45:08;;;;;;;6.00;4.03;;;19.40;44.90;;;;;;5037096;28;20048;-60
2021/05/10 01:47:34;;;;;;;4.47;4.03;;;19.40;45.10;;;;;;5035249;28;20045;-60
2021/05/10 01:50:07;;;;;;;7.88;3.97;;;19.50;45.00;;;;;;5038218;28;20119;-60
2021/05/10 01:52:32;;;;;;;5.38;4.03;;;19.40;44.90;;;;;;5039972;28;20067;-61
2021/05/10 01:54:58;;;;;;;8.00;4.40;;;19.20;48.20;;;;;;5044489;28;20467;-61
2021/05/10 01:57:24;;;;;;;5.43;3.13;;;19.20;44.70;;;;;;5031061;28;20036;-60
2021/05/10 01:59:49;;;;;;;5.75;3.72;;;19.20;45.00;;;;;;5038070;28;20030;-60
2021/05/10 02:02:15;;;;;;;7.53;4.00;;;19.20;44.80;;;;;;5032950;28;20495;-60
2021/05/10 02:05:05;;;;;;;6.78;3.58;;;19.20;44.90;;;;;;5038677;28;20037;-60
2021/05/10 02:07:52;;;;;;;6.53;3.92;;;19.20;45.30;;;;;;5007381;28;20042;-60
2021/05/10 02:10:32;;;;;;;5.55;3.60;;;19.20;45.10;;;;;;5039641;28;20033;-59
2021/05/10 02:13:11;;;;;;;7.70;4.15;;;19.20;45.20;;;;;;5034146;28;20534;-60
2021/05/10 02:15:42;;;;;;;4.63;4.15;;;19.10;45.20;;;;;;5039568;28;20053;-60
2021/05/10 02:18:08;;;;;;;6.47;4.43;;;;;;;;;;5035550;28;20049;-60
2021/05/10 02:20:35;;;;;;;5.15;4.38;;;;;;;;;;5036488;28;20045;-60
2021/05/10 02:23:02;;;;;;;5.45;3.78;;;;;;;;;;5031832;28;20037;-59
2021/05/10 02:25:30;;;;;;;7.50;4.10;;;;;;;;;;5040558;28;20049;-59
2021/05/10 02:27:57;;;;;;;4.90;3.75;;;;;;;;;;5042786;28;20056;-58
2021/05/10 02:30:24;;;;;;;7.53;4.70;;;;;;;;;;5033042;28;20037;-58
2021/05/10 02:32:50;;;;;;;6.80;3.88;;;;;;;;;;5036298;28;20040;-58
2021/05/10 02:35:17;;;;;;;6.22;4.30;;;;;;;;;;5036842;28;20146;-58
2021/05/10 02:37:43;;;;;;;4.70;4.05;;;;;;;;;;5037343;28;20508;-59
2021/05/10 02:40:10;;;;;;;4.60;3.53;;;;;;;;;;5033788;28;20045;-58
2021/05/10 02:42:36;;;;;;;5.53;4.05;;;;;;;;;;5038648;28;20030;-59
2021/05/10 02:45:02;;;;;;;4.70;3.90;;;;;;;;;;5038078;28;20037;-59
2021/05/10 02:50:31;;;;;;;6.43;3.78;;;19.80;83.90;;;;;;5017418;28;20079;-59
2021/05/10 02:52:57;;;;;;;5.68;3.75;;;18.90;83.20;;;;;;5035756;28;20033;-60
2021/05/10 02:55:22;;;;;;;4.55;3.60;;;19.10;44.50;;;;;;5037646;28;20134;-59
2021/05/10 02:57:49;;;;;;;5.28;3.80;;;19.10;44.40;;;;;;5033018;28;20482;-60
2021/05/10 03:00:17;;;;;;;5.93;3.72;;;19.10;44.40;;;;;;5032418;28;20041;-60
2021/05/10 03:02:43;;;;;;;7.90;3.30;;;19.10;43.90;;;;;;5027065;28;20040;-60
2021/05/10 03:05:11;;;;;;;3.72;3.13;;;19.10;43.90;;;;;;5038628;28;20037;-60
2021/05/10 03:07:41;;;;;;;5.50;4.13;;;19.10;43.80;;;;;;5041619;28;20518;-60
2021/05/10 03:10:09;;;;;;;5.50;3.45;;;19.10;43.50;;;;;;5033320;28;20044;-60
2021/05/10 03:12:36;;;;;;;5.75;3.08;;;19.10;43.50;;;;;;5044139;28;20494;-60
2021/05/10 03:15:03;;;;;;;2.88;2.67;;;19.00;43.40;;;;;;5036960;28;20128;-60
2021/05/10 03:17:30;;;;;;;5.43;3.50;;;19.00;43.10;;;;;;5038248;28;20419;-59
2021/05/10 03:19:55;;;;;;;5.35;3.20;;;19.00;43.50;;;;;;5033553;28;20486;-59
2021/05/10 03:22:21;;;;;;;3.08;2.75;;;19.10;43.50;;;;;;5038634;28;20033;-59
2021/05/10 03:24:46;;;;;;;5.45;3.42;;;19.10;42.70;;;;;;5039763;28;20045;-60
2021/05/10 03:27:12;;;;;;;4.13;3.00;;;19.00;42.60;;;;;;5028690;28;20068;-60
2021/05/10 03:29:38;;;;;;;4.35;3.20;;;19.00;42.10;;;;;;5044551;28;20048;-60
2021/05/10 03:32:04;;;;;;;5.53;3.20;;;19.00;43.20;;;;;;5031227;28;20057;-60
2021/05/10 03:34:29;;;;;;;4.93;2.95;;;18.90;45.80;;;;;;5036922;28;20037;-60
2021/05/10 03:36:55;;;;;;;3.45;3.15;;;18.90;41.80;;;;;;5030430;28;20484;-60
2021/05/10 03:39:21;;;;;;;5.13;2.92;;;18.90;42.20;;;;;;5042897;28;20379;-59
2021/05/10 03:41:46;;;;;;;3.92;3.03;;;18.90;48.50;;;;;;5037480;28;20040;-60
2021/05/10 03:44:12;;;;;;;4.60;3.20;;;18.80;42.30;;;;;;5038210;28;20054;-59
2021/05/10 03:46:37;;;;;;;5.53;3.53;;;18.80;42.40;;;;;;5049717;28;20533;-60
2021/05/10 03:49:06;;;;;;;4.05;3.10;;;18.70;42.30;;;;;;5038812;28;20034;-60
2021/05/10 03:51:32;;;;;;;5.22;3.60;;;18.70;42.60;;;;;;5036095;28;20084;-60
2021/05/10 03:53:58;;;;;;;4.90;3.65;;;18.80;43.00;;;;;;5037437;28;20087;-60
2021/05/10 03:56:24;;;;;;;9.07;4.35;;;18.70;42.60;;;;;;5039253;28;20033;-60
2021/05/10 03:58:49;;;;;;;5.97;3.88;;;18.70;44.70;;;;;;5035633;28;20506;-60
2021/05/10 04:01:15;;;;;;;4.05;2.85;;;18.60;42.80;;;;;;5040852;28;20128;-60
2021/05/10 04:09:22;;;;;;;4.38;3.13;;;18.60;43.20;;;;;;5032801;28;20099;-60
2021/05/10 04:14:32;;;;;;;3.95;3.40;;;18.60;43.30;;;;;;5003010;28;20068;-59
2021/05/10 04:16:59;;;;;;;4.10;3.35;;;18.50;43.30;;;;;;5045702;28;20022;-59
2021/05/10 04:19:25;;;;;;;7.80;4.20;;;18.50;43.40;;;;;;5031218;28;20499;-59
2021/05/10 04:21:50;;;;;;;4.00;3.60;;;18.60;43.90;;;;;;5058831;28;20087;-59
2021/05/10 04:24:16;;;;;;;4.05;3.45;;;18.50;43.50;;;;;;5042725;28;20045;-59
2021/05/10 04:26:42;;;;;;;4.03;3.63;;;18.20;45.60;;;;;;5037591;28;20057;-59
2021/05/10 04:29:09;;;;;;;6.38;4.13;;;18.50;44.40;;;;;;5047298;28;20064;-58
2021/05/10 04:31:34;;;;;;;6.97;3.80;;;18.60;45.90;;;;;;5054050;28;20095;-59
2021/05/10 04:34:00;;;;;;;5.57;4.20;;;18.40;43.50;;;;;;5036507;28;20045;-59
2021/05/10 04:36:26;;;;;;;6.30;4.03;;;18.40;44.30;;;;;;5041524;28;20041;-59
2021/05/10 04:38:52;;;;;;;5.40;4.22;;;18.40;51.30;;;;;;5041723;28;20541;-59
2021/05/10 04:41:17;;;;;;;4.53;4.13;;;18.40;43.90;;;;;;5041667;28;20145;-59
2021/05/10 04:43:43;;;;;;;8.70;4.50;;;18.40;45.30;;;;;;5032716;28;20025;-59
2021/05/10 04:46:09;;;;;;;6.43;3.78;;;18.50;48.60;;;;;;5039959;28;20037;-59
2021/05/10 04:48:35;;;;;;;5.30;3.78;;;18.50;50.50;;;;;;5039788;28;20033;-59
2021/05/10 04:51:01;;;;;;;5.82;3.60;;;18.40;56.90;;;;;;5034883;28;20067;-59
2021/05/10 04:53:26;;;;;;;4.72;4.22;;;18.40;58.50;;;;;;5042740;28;20040;-59
2021/05/10 04:55:52;;;;;;;6.15;4.00;;;;;;;;;;5034601;28;20054;-60
2021/05/10 04:58:18;;;;;;;6.38;4.43;;;18.20;43.30;;;;;;5044638;28;20137;-59
2021/05/10 05:00:44;;;;;;;6.50;4.30;;;18.20;44.10;;;;;;5041256;28;20138;-59
2021/05/10 05:03:09;;;;;;;5.22;3.97;;;18.30;44.10;;;;;;5043864;28;20090;-59
2021/05/10 05:05:36;;;;;;;4.78;3.85;;;18.40;43.70;;;;;;5036481;28;20087;-59
2021/05/10 05:08:01;;;;;;;6.97;4.65;;;18.40;43.50;;;;;;5037627;28;20125;-59
2021/05/10 05:10:27;;;;;;;6.53;4.20;;;18.50;43.80;;;;;;5049530;28;20527;-59
2021/05/10 05:12:53;;;;;;;6.07;4.22;;;18.50;43.70;;;;;;5044503;28;20175;-58
2021/05/10 05:15:22;;;;;;;7.63;4.55;;;18.50;43.70;;;;;;5036143;28;20186;-60
2021/05/10 05:17:48;;;;;;;5.40;4.30;;;18.50;43.80;;;;;;5042528;28;20037;-60
2021/05/10 05:20:15;;;;;;;6.93;4.43;;;18.50;43.70;;;;;;5034391;28;22306;-60
2021/05/10 05:22:40;;;;;;;5.47;4.45;;;18.50;43.30;;;;;;5043310;28;20038;-59
2021/05/10 05:25:07;;;;;;;6.43;4.20;;;18.60;43.20;;;;;;5055823;28;20040;-60
2021/05/10 05:27:34;;;;;;;4.50;4.10;;;18.70;43.10;;;;;;5041464;28;20045;-60
2021/05/10 05:29:59;;;;;;;5.80;5.22;;;18.70;42.90;;;;;;5039764;28;20044;-60
2021/05/10 05:32:25;;;;;;;6.28;4.78;;;18.80;42.80;;;;;;5035349;28;20109;-60
2021/05/10 05:34:51;;;;;;;8.27;4.82;;;18.80;42.50;;;;;;5033901;28;20495;-60
2021/05/10 05:37:29;;;;;;;7.53;5.25;;;18.90;42.80;;;;;;5035806;28;20124;-59
2021/05/10 05:39:54;;;;;;;7.28;4.70;;;19.00;42.90;;;;;;4998027;28;20072;-59
2021/05/10 05:42:20;;;;;;;7.78;4.95;;;19.00;42.80;;;;;;5033694;28;20143;-59
2021/05/10 05:44:51;;;;;;;5.93;4.32;;;19.00;42.50;;;;;;5041727;28;20040;-60
2021/05/10 05:47:22;;;;;;;5.57;4.30;;;19.10;42.50;;;;;;5042970;28;20560;-59
2021/05/10 05:49:48;;;;;;;5.38;4.55;;;19.00;42.50;;;;;;5039654;28;20029;-59
2021/05/10 05:52:13;;;;;;;6.55;4.88;;;19.00;42.10;;;;;;5039468;28;20494;-60
2021/05/10 05:54:39;;;;;;;6.13;4.68;;;19.00;41.80;;;;;;5040273;28;20064;-59
2021/05/10 05:57:05;;;;;;;5.28;4.35;;;19.20;42.10;;;;;;5035768;28;20045;-60
2021/05/10 05:59:31;;;;;;;5.22;4.72;;;19.20;41.30;;;;;;5036762;28;20060;-59
2021/05/10 06:01:57;;;;;;;6.72;4.00;;;19.30;41.60;;;;;;5032194;28;20491;-59
2021/05/10 06:04:22;;;;;;;9.65;4.53;;;19.20;40.60;;;;;;5042411;28;20451;-60
2021/05/10 06:06:49;;;;;;;6.53;4.65;;;19.30;41.10;;;;;;5035479;28;20037;-58
2021/05/10 06:09:15;;;;;;;5.55;4.45;;;19.30;41.50;;;;;;5038097;28;20163;-58
2021/05/10 06:11:41;;;;;;;6.47;4.40;;;19.30;41.10;;;;;;5038903;28;20139;-57
2021/05/10 06:14:06;;;;;;;6.43;4.95;;;19.20;40.70;;;;;;5033490;28;20041;-59
2021/05/10 06:16:32;;;;;;;6.28;4.13;;;19.20;40.90;;;;;;5034709;28;20479;-57
2021/05/10 06:18:58;;;;;;;6.22;4.55;;;19.20;40.90;;;;;;5032085;28;20071;-59
2021/05/10 06:21:24;;;;;;;5.97;4.10;;;19.30;40.30;;;;;;5036514;28;20041;-56
2021/05/10 06:23:50;;;;;;;5.00;3.85;;;19.10;40.20;;;;;;5036228;28;20045;-56
2021/05/10 06:26:16;;;;;;;6.90;5.18;;;19.20;40.00;;;;;;5035861;28;20037;-57
2021/05/10 06:28:42;;;;;;;10.70;4.07;;;19.40;40.00;;;;;;5037433;28;20037;-58
2021/05/10 06:31:10;;;;;;;4.43;4.03;;;19.50;39.40;;;;;;5040316;28;20041;-58
2021/05/10 06:33:35;;;;;;;8.25;4.65;;;19.50;39.60;;;;;;5038731;28;20098;-57
2021/05/10 06:36:01;;;;;;;7.95;4.63;;;19.50;39.00;;;;;;5034877;28;20034;-57
2021/05/10 06:38:27;;;;;;;5.32;3.97;;;19.50;38.50;;;;;;5038676;28;20047;-58
2021/05/10 06:40:52;;;;;;;5.38;3.78;;;19.60;38.30;;;;;;5039208;28;20494;-58
2021/05/10 06:43:18;;;;;;;6.82;4.57;;;19.60;37.90;;;;;;5033838;28;20039;-57
2021/05/10 06:45:44;;;;;;;4.78;4.18;;;19.60;38.10;;;;;;5041400;28;20072;-57
2021/05/10 06:48:09;;;;;;;6.65;4.20;;;19.60;37.80;;;;;;5039337;28;20086;-57
2021/05/10 06:50:35;;;;;;;5.28;3.90;;;19.70;37.10;;;;;;5036290;28;20038;-57
2021/05/10 06:53:01;;;;;;;5.80;3.90;;;19.70;36.60;;;;;;5041593;28;20041;-58
2021/05/10 06:55:27;;;;;;;4.45;2.92;;;19.60;36.50;;;;;;5036342;28;20131;-56
2021/05/10 06:57:52;;;;;;;3.13;2.80;;;19.50;36.00;;;;;;5038912;28;20038;-57
2021/05/10 07:00:18;;;;;;;3.50;3.10;;;19.50;36.30;;;;;;5035525;28;20041;-57
2021/05/10 07:02:44;;;;;;;5.57;3.72;;;19.50;35.20;;;;;;5040760;28;20083;-56
2021/05/10 07:05:10;;;;;;;4.43;3.35;;;19.60;35.30;;;;;;5033799;28;20057;-56
2021/05/10 07:07:36;;;;;;;5.13;3.50;;;19.70;34.80;;;;;;5040659;28;20040;-57
2021/05/10 07:10:03;;;;;;;3.90;3.22;;;19.70;34.80;;;;;;5036878;28;20556;-56
2021/05/10 07:12:28;;;;;;;3.97;3.22;;;19.70;34.20;;;;;;5038436;28;20406;-57
2021/05/10 07:14:54;;;;;;;4.07;2.80;;;19.80;34.40;;;;;;5035072;28;20049;-57
2021/05/10 07:17:20;;;;;;;4.00;2.75;;;19.90;34.80;;;;;;5039941;28;20055;-58
2021/05/10 07:19:45;;;;;;;5.03;3.20;;;20.00;34.60;;;;;;5039786;28;20048;-57
2021/05/10 07:22:11;;;;;;;6.35;3.75;;;20.10;34.20;;;;;;5039793;28;20091;-57
2021/05/10 07:24:37;;;;;;;4.05;3.17;;;19.90;34.00;;;;;;5038946;28;20041;-56
2021/05/10 07:27:02;;;;;;;6.80;3.85;;;19.80;34.20;;;;;;5032101;28;20597;-57
2021/05/10 07:29:28;;;;;;;5.53;3.35;;;19.80;34.60;;;;;;5032848;28;20043;-57
2021/05/10 07:31:54;;;;;;;9.15;3.85;;;19.80;35.00;;;;;;5036926;28;20090;-57
2021/05/10 07:34:21;;;;;;;8.65;4.22;;;19.90;34.80;;;;;;5041073;28;20055;-58
2021/05/10 07:36:47;;;;;;;6.55;3.45;;;19.90;34.80;;;;;;5036425;28;20072;-58
2021/05/10 07:39:12;;;;;;;9.13;4.10;;;20.00;35.00;;;;;;5041791;28;20379;-58
2021/05/10 07:41:38;;;;;;;6.97;4.18;;;20.00;34.70;;;;;;5033873;28;20029;-58
2021/05/10 07:44:04;;;;;;;10.15;4.85;;;19.90;34.20;;;;;;5045521;28;20033;-58
2021/05/10 07:46:30;;;;;;;5.35;3.88;;;20.00;34.40;;;;;;5034134;28;20049;-58
2021/05/10 07:48:56;;;;;;;5.25;3.80;;;20.10;34.20;;;;;;5048235;28;20120;-57
2021/05/10 07:51:22;;;;;;;9.63;3.80;;;20.20;32.90;;;;;;5040031;28;20128;-59
2021/05/10 07:53:49;;;;;;;6.05;3.28;;;20.20;33.00;;;;;;5049415;28;20480;-58
2021/05/10 07:56:14;;;;;;;5.80;3.30;;;20.50;33.40;;;;;;5043045;28;20583;-56
2021/05/10 07:58:44;;;;;;;8.45;3.60;;;20.60;33.00;;;;;;5045850;28;20044;-59
2021/05/10 08:01:09;;;;;;;4.85;2.92;;;20.70;32.90;;;;;;5037025;28;20041;-58
2021/05/10 08:03:35;;;;;;;8.23;3.83;;;20.70;32.60;;;;;;5045534;28;20401;-55
2021/05/10 08:06:01;;;;;;;6.15;2.58;;;20.70;33.10;;;;;;5046300;28;20049;-57
2021/05/10 08:08:27;;;;;;;9.32;3.47;;;20.50;32.50;;;;;;5042032;28;20070;-57
2021/05/10 08:10:53;;;;;;;6.45;3.55;;;20.40;32.80;;;;;;5044704;28;20068;-56
2021/05/10 08:13:19;;;;;;;5.80;3.20;;;20.50;33.20;;;;;;5041922;28;20130;-57
2021/05/10 08:15:46;;;;;;;4.85;3.20;;;20.50;33.20;;;;;;5046874;28;20124;-56
2021/05/10 08:18:12;;;;;;;4.78;3.30;;;20.60;33.60;;;;;;5038112;28;20039;-57
2021/05/10 08:20:43;;;;;;;5.07;3.67;;;20.80;33.30;;;;;;5056196;28;20041;-56
2021/05/10 08:23:09;;;;;;;11.52;3.97;;;20.80;33.20;;;;;;5038165;28;20061;-56
2021/05/10 08:25:35;;;;;;;4.93;3.17;;;20.80;33.30;;;;;;5039428;28;20045;-57
2021/05/10 08:28:01;;;;;;;5.25;3.50;;;20.70;33.50;;;;;;5037101;28;20037;-56
2021/05/10 08:30:26;;;;;;;5.72;3.47;;;20.80;34.30;;;;;;5046148;28;20398;-57
2021/05/10 08:32:54;;;;;;;5.45;2.92;;;20.80;34.50;;;;;;5037660;28;20490;-56
2021/05/10 08:35:19;;;;;;;5.55;3.47;;;21.00;34.50;;;;;;5044580;28;20049;-56
2021/05/10 08:37:45;;;;;;;5.60;3.85;;;21.20;34.70;;;;;;5041542;28;20029;-56
2021/05/10 08:40:11;;;;;;;3.97;3.20;;;21.30;34.70;;;;;;5044740;28;20120;-56
2021/05/10 08:42:37;;;;;;;3.85;3.35;;;21.40;34.40;;;;;;5043942;28;20371;-57
2021/05/10 08:45:03;;;;;;;5.05;3.50;;;21.40;34.60;;;;;;5036749;28;20064;-56
2021/05/10 08:47:32;;;;;;;4.18;3.63;;;21.50;34.50;;;;;;5044847;28;20079;-58
2021/05/10 08:50:03;;;;;;;6.65;3.63;;;21.50;34.60;;;;;;5040981;28;20029;-55
2021/05/10 08:52:29;;;;;;;4.68;3.30;;;21.60;35.30;;;;;;5043276;28;20037;-58
2021/05/10 08:54:54;;;;;;;6.28;3.33;;;21.70;35.20;;;;;;5039691;28;20049;-57
2021/05/10 08:57:20;;;;;;;6.90;3.45;;;21.80;35.30;;;;;;5042285;28;20041;-57
2021/05/10 08:59:46;;;;;;;10.48;4.32;;;21.90;34.30;;;;;;5039801;28;20040;-58
2021/05/10 09:02:12;;;;;;;13.07;5.78;;;21.90;34.70;;;;;;5047590;28;20033;-55
2021/05/10 09:04:40;;;;;;;6.40;4.30;;;22.00;35.50;;;;;;5035533;28;20034;-59
2021/05/10 09:07:19;;;;;;;9.48;4.85;;;22.00;35.00;;;;;;5043517;28;20124;-56
2021/05/10 09:09:52;;;;;;;6.82;4.60;;;21.90;35.10;;;;;;5039133;28;20131;-57
2021/05/10 09:12:21;;;;;;;8.75;4.80;;;22.00;35.60;;;;;;5043948;28;20082;-56
2021/05/10 09:14:47;;;;;;;6.80;4.22;;;21.80;35.40;;;;;;5037877;28;20403;-57
2021/05/10 09:17:13;;;;;;;6.65;4.32;;;21.80;35.20;;;;;;5041851;28;20037;-57
2021/05/10 09:19:49;;;;;;;10.93;4.45;;;21.90;36.40;;;;;;5040434;28;20478;-50
2021/05/10 09:22:16;;;;;;;9.18;4.35;;;21.80;35.90;;;;;;5039962;28;20486;-58
2021/05/10 09:24:46;;;;;;;7.63;4.13;;;22.00;35.90;;;;;;5039883;28;20084;-57
2021/05/10 09:27:25;;;;;;;5.35;4.05;;;22.10;36.80;;;;;;5042043;28;20546;-58
2021/05/10 09:30:10;;;;;;;8.32;4.80;;;22.10;36.20;;;;;;5038587;28;20120;-59
2021/05/10 09:32:36;;;;;;;8.82;4.63;;;22.10;36.40;;;;;;5051735;28;20047;-60
2021/05/10 09:35:20;;;;;;;7.90;4.60;;;22.00;35.90;;;;;;5035226;28;20048;-59
2021/05/10 09:37:53;;;;;;;9.30;5.85;;;22.10;36.70;;;;;;5050444;28;20106;-60
2021/05/10 09:40:19;;;;;;;6.32;4.78;;;21.90;36.40;;;;;;5038070;28;20041;-60
2021/05/10 09:42:50;;;;;;;6.93;4.88;;;21.90;36.40;;;;;;5056491;28;20560;-59
2021/05/10 09:45:37;;;;;;;6.10;4.63;;;22.00;36.20;;;;;;5048726;28;20140;-56
2021/05/10 09:48:10;;;;;;;6.95;4.85;;;22.00;36.40;;;;;;5020671;28;20052;-57
2021/05/10 09:50:45;;;;;;;6.80;4.78;;;22.00;36.40;;;;;;5040423;28;20039;-55
2021/05/10 09:53:14;;;;;;;;;;;22.00;36.20;;;;;;5039806;28;20167;-57
2021/05/10 09:55:51;;;;;;;7.30;4.60;;;21.90;36.00;;;;;;5055517;28;20401;-56
2021/05/10 09:58:18;;;;;;;10.90;3.97;;;21.90;36.70;;;;;;5041861;28;20044;-53
2021/05/10 10:00:45;;;;;;;7.07;4.28;;;21.90;36.30;;;;;;5042034;28;20045;-48
2021/05/10 10:03:30;;;;;;;5.20;3.92;;;22.10;35.90;;;;;;5044698;28;20037;-51
2021/05/10 10:05:58;;;;;;;7.97;4.00;;;22.10;36.00;;;;;;5035954;28;20087;-53
2021/05/10 10:08:24;;;;;;;8.88;4.95;;;22.10;35.80;;;;;;5038097;28;20033;-49
2021/05/10 10:10:50;;;;;;;5.90;4.05;;;22.00;35.70;;;;;;5040348;28;20033;-59
2021/05/10 10:13:18;;;;;;;7.75;4.43;;;22.00;35.90;;;;;;5032170;28;20029;-59
2021/05/10 10:15:46;;;;;;;8.57;5.07;;;22.10;35.90;;;;;;5038291;28;20483;-58
2021/05/10 10:18:15;;;;;;;5.78;3.58;;;22.10;35.40;;;;;;5038893;28;20045;-57
2021/05/10 10:20:42;;;;;;;6.13;4.53;;;22.10;35.10;;;;;;5045943;28;20115;-57
2021/05/10 10:23:09;;;;;;;8.05;4.68;;;22.00;35.10;;;;;;5033316;28;20377;-57
2021/05/10 10:25:36;;;;;;;6.32;4.88;;;22.00;35.50;;;;;;5042424;28;20131;-58
2021/05/10 10:28:05;;;;;;;6.38;4.60;;;21.80;35.00;;;;;;5034075;28;20037;-60
2021/05/10 10:30:32;;;;;;;15.70;5.63;;;21.90;35.70;;;;;;5042788;28;20043;-60
2021/05/10 10:33:05;;;;;;;4.97;4.50;;;21.90;34.60;;;;;;5035484;28;20474;-58
2021/05/10 10:35:32;;;;;;;5.45;4.95;;;22.00;35.30;;;;;;5043865;28;20141;-59
2021/05/10 10:37:59;;;;;;;5.63;5.07;;;22.10;34.90;;;;;;5034499;28;20068;-59
2021/05/10 10:40:25;;;;;;;10.93;6.15;;;22.30;34.60;;;;;;5037709;28;20056;-60
2021/05/10 10:42:51;;;;;;;10.23;4.78;;;22.40;34.40;;;;;;5035304;28;20775;-60
2021/05/10 10:45:23;;;;;;;11.23;6.20;;;22.40;33.70;;;;;;5039751;28;20102;-60
2021/05/10 10:47:54;;;;;;;6.70;5.00;;;22.40;33.40;;;;;;5036121;28;20045;-60
2021/05/10 10:50:22;;;;;;;5.10;4.47;;;22.50;33.70;;;;;;5051219;28;20480;-60
2021/05/10 10:53:02;;;;;;;5.03;4.53;;;22.60;33.60;;;;;;5037562;28;20032;-60
2021/05/10 10:55:44;;;;;;;6.63;4.55;;;22.70;32.60;;;;;;5015843;28;20462;-60
2021/05/10 10:58:12;;;;;;;6.32;5.38;;;22.80;32.30;;;;;;5038898;28;20086;-60
2021/05/10 11:01:07;;;;;;;8.82;5.15;;;22.60;32.20;;;;;;5040890;28;20791;-60
2021/05/10 11:03:35;;;;;;;6.55;4.82;;;22.50;31.80;;;;;;5018855;28;20037;-60
2021/05/10 11:06:01;;;;;;;6.75;4.78;;;22.40;33.60;;;;;;5040887;28;20052;-60
2021/05/10 11:08:39;;;;;;;5.88;4.80;;;22.30;33.60;;;;;;5038664;28;20436;-60
2021/05/10 11:11:09;;;;;;;7.40;5.82;;;22.20;33.10;;;;;;5034887;28;20030;-60
2021/05/10 11:13:39;;;;;;;7.80;5.78;;;22.20;33.50;;;;;;5038955;28;20090;-60
2021/05/10 11:16:18;;;;;;;8.32;4.82;;;22.20;33.60;;;;;;5033039;28;20132;-60
2021/05/10 11:18:55;;;;;;;7.20;5.10;;;22.20;33.80;;;;;;5050899;28;20049;-60
2021/05/10 11:21:24;;;;;;;5.88;5.07;;;22.30;34.10;;;;;;5037350;28;20560;-60
2021/05/10 11:23:51;;;;;;;10.70;5.55;;;22.30;34.40;;;;;;5037102;28;20033;-60
2021/05/10 11:26:47;;;;;;;9.82;5.55;;;22.30;33.90;;;;;;5030061;28;20040;-61
2021/05/10 11:29:25;;;;;;;7.55;6.20;;;22.30;33.40;;;;;;5012384;28;20045;-60
2021/05/10 11:32:11;;;;;;;6.72;5.63;;;22.40;33.60;;;;;;5039120;28;20487;-60
2021/05/10 11:34:37;;;;;;;9.02;6.20;;;22.50;33.40;;;;;;5012576;28;20046;-60
2021/05/10 11:37:07;;;;;;;8.43;5.45;;;22.60;33.60;;;;;;5041447;28;20041;-60
2021/05/10 11:39:38;;;;;;;7.93;6.28;;;22.80;34.10;;;;;;5034253;28;20054;-60
2021/05/10 11:42:07;;;;;;;10.07;6.13;;;23.00;33.20;;;;;;5040067;28;20034;-60
2021/05/10 11:44:38;;;;;;;12.68;6.57;;;23.00;33.10;;;;;;5041475;28;20099;-60
2021/05/10 11:47:08;;;;;;;10.82;6.97;;;;;;;;;;5035254;28;20431;-60
2021/05/10 11:49:36;;;;;;;7.15;6.45;;;23.30;31.50;;;;;;5041831;28;20120;-60
2021/05/10 11:52:06;;;;;;;11.70;6.85;;;23.60;31.80;;;;;;5032635;28;20068;-60
2021/05/10 11:54:33;;;;;;;6.63;5.80;;;;;;;;;;5031882;28;20487;-60
2021/05/10 11:57:02;;;;;;;9.30;5.82;;;23.50;38.00;;;;;;5033167;28;20057;-60
2021/05/10 12:01:56;;;;;;;9.15;6.53;;;;;;;;;;5029884;28;20090;-60
2021/05/10 12:04:31;;;;;;;9.23;7.53;;;26.90;28.30;;;;;;5055517;28;20125;-60
2021/05/10 12:06:59;;;;;;;9.93;7.07;;;26.90;28.10;;;;;;5030896;28;20038;-60
2021/05/10 12:09:41;;;;;;;7.72;6.93;;;26.50;27.80;;;;;;5038105;28;20385;-60
2021/05/10 12:12:12;;;;;;;7.75;6.35;;;26.60;28.70;;;;;;5030765;28;20624;-60
2021/05/10 12:14:43;;;;;;;8.85;7.82;;;26.60;27.70;;;;;;5041058;28;20069;-60
2021/05/10 12:17:17;;;;;;;9.32;7.13;;;26.80;27.80;;;;;;5032638;28;20037;-60
2021/05/10 12:20:09;;;;;;;9.27;7.07;;;27.70;27.90;;;;;;5032950;28;20054;-61
2021/05/10 12:22:55;;;;;;;11.40;7.70;;;27.50;26.90;;;;;;5009072;28;20063;-60
2021/05/10 12:25:27;;;;;;;11.30;7.80;;;26.80;28.00;;;;;;5026812;28;20124;-61
2021/05/10 12:28:05;;;;;;;10.57;6.28;;;27.40;27.80;;;;;;5034731;28;20041;-61
2021/05/10 12:30:52;;;;;;;11.32;8.48;;;27.60;27.20;;;;;;5038206;28;20083;-60
2021/05/10 12:33:23;;;;;;;10.80;8.52;;;27.50;26.90;;;;;;5031974;28;20500;-61
2021/05/10 12:35:53;;;;;;;12.02;7.35;;;27.00;27.10;;;;;;5041150;28;20506;-60
2021/05/10 12:38:32;;;;;;;9.25;6.97;;;27.00;27.90;;;;;;5039701;28;20029;-60
2021/05/10 12:40:59;;;;;;;9.65;7.63;;;27.40;27.70;;;;;;5021066;28;20048;-60
2021/05/10 12:43:26;;;;;;;9.95;8.10;;;27.10;27.30;;;;;;5039216;28;20399;-60
2021/05/10 12:46:03;;;;;;;10.60;7.88;;;27.30;27.70;;;;;;5043341;28;20140;-60
2021/05/10 12:48:41;;;;;;;8.68;7.72;;;27.60;27.20;;;;;;5016225;28;20048;-60
2021/05/10 12:51:26;;;;;;;11.65;9.15;;;28.40;26.10;;;;;;5043121;28;20025;-61
2021/05/10 12:54:03;;;;;;;;;;;27.70;26.50;;;;;;5042004;28;20415;-60
2021/05/10 12:56:40;;;;;;;10.18;8.88;;;26.90;27.70;;;;;;5018905;28;19921;-60
2021/05/10 12:59:05;;;;;;;10.57;8.18;;;26.20;27.80;;;;;;5038514;28;20037;-60
2021/05/10 13:01:31;;;;;;;9.65;8.15;;;25.60;28.50;;;;;;5045871;28;20044;-60
2021/05/10 13:04:13;;;;;;;11.70;8.65;;;25.40;29.30;;;;;;5034733;28;20038;-59
2021/05/10 13:06:47;;;;;;;10.23;9.07;;;25.30;29.80;;;;;;5040653;28;20029;-59
2021/05/10 13:09:29;;;;;;;12.43;8.73;;;25.20;29.80;;;;;;5041414;28;20129;-59
2021/05/10 13:12:01;;;;;;;9.77;8.77;;;25.00;29.90;;;;;;5049188;28;20290;-58